Time;durP1;ratioP1;P1;durP2;ratioP2;P2;SDS_P1;SDS_P2;PMS_P1;PMS_P2;Temp;Humidity;BMP_temperature;BMP_pressure;BME280_temperature;BME280_humidity;BME280_pressure;Samples;Min_cycle;Max_cycle;Signal;HPM_P1;HPM_P2
2024/01/16 00:01:10;;;;;;;5.47;2.35;;;1.70;99.90;;;;;;5057138;28;20036;-72
2024/01/16 00:03:37;;;;;;;9.65;2.65;;;1.80;99.90;;;;;;5056872;28;20021;-72
2024/01/16 00:06:03;;;;;;;9.90;2.50;;;1.80;99.90;;;;;;5056017;28;20021;-73
2024/01/16 00:08:28;;;;;;;5.25;2.70;;;1.90;99.90;;;;;;5055916;28;20063;-72
2024/01/16 00:10:54;;;;;;;4.72;2.03;;;1.90;99.90;;;;;;5056271;28;20025;-72
2024/01/16 00:13:19;;;;;;;7.55;2.33;;;1.90;99.90;;;;;;5056945;28;20060;-72
2024/01/16 00:15:45;;;;;;;7.82;2.55;;;1.90;99.90;;;;;;5059850;28;20031;-72
2024/01/16 00:18:10;;;;;;;5.05;1.73;;;1.90;99.90;;;;;;5061275;28;20044;-72
2024/01/16 00:20:36;;;;;;;9.80;2.35;;;2.00;99.90;;;;;;5060648;28;20033;-72
2024/01/16 00:23:01;;;;;;;9.35;2.35;;;1.90;99.90;;;;;;5060733;28;20021;-72
2024/01/16 00:25:27;;;;;;;6.72;2.53;;;1.90;99.90;;;;;;5061001;28;20029;-72
2024/01/16 00:27:55;;;;;;;8.77;1.80;;;1.80;99.90;;;;;;5060405;28;20017;-72
2024/01/16 00:30:20;;;;;;;5.90;2.35;;;1.90;99.90;;;;;;5059942;28;20021;-72
2024/01/16 00:32:46;;;;;;;8.55;2.55;;;1.90;99.90;;;;;;5059846;28;20039;-72
2024/01/16 00:35:12;;;;;;;5.70;2.00;;;1.90;99.90;;;;;;5060961;28;20022;-73
2024/01/16 00:37:38;;;;;;;7.78;2.88;;;2.10;99.90;;;;;;5060088;28;20079;-72
2024/01/16 00:40:04;;;;;;;9.45;2.38;;;2.10;99.90;;;;;;5060504;28;20086;-73
2024/01/16 00:42:31;;;;;;;5.78;2.17;;;2.10;99.90;;;;;;5060549;28;20036;-73
2024/01/16 00:44:57;;;;;;;8.38;3.00;;;2.10;99.90;;;;;;5060511;28;20021;-72
2024/01/16 00:47:23;;;;;;;10.05;2.42;;;2.10;99.90;;;;;;5059922;28;20021;-72
2024/01/16 00:49:49;;;;;;;7.43;2.00;;;2.10;99.90;;;;;;5060168;28;20074;-72
2024/01/16 00:52:14;;;;;;;5.55;1.80;;;2.00;99.90;;;;;;5059249;28;20021;-73
2024/01/16 00:54:41;;;;;;;3.47;1.85;;;2.10;99.90;;;;;;5060260;28;20028;-73
2024/01/16 00:57:07;;;;;;;13.20;2.83;;;2.10;99.90;;;;;;5060086;28;20112;-73
2024/01/16 00:59:32;;;;;;;4.25;2.00;;;2.10;99.90;;;;;;5059996;28;20060;-72
2024/01/16 01:01:58;;;;;;;6.53;2.85;;;2.00;99.90;;;;;;5060014;28;20123;-72
2024/01/16 01:04:23;;;;;;;4.97;2.30;;;2.00;99.90;;;;;;5059490;28;20107;-72
2024/01/16 01:06:49;;;;;;;5.45;2.03;;;2.10;99.90;;;;;;5059731;28;20040;-72
2024/01/16 01:09:16;;;;;;;4.68;2.33;;;2.10;99.90;;;;;;5060109;28;20020;-72
2024/01/16 01:11:42;;;;;;;6.78;2.08;;;2.00;99.90;;;;;;5058826;28;20021;-73
2024/01/16 01:14:08;;;;;;;12.63;2.60;;;1.80;99.90;;;;;;5058739;28;20025;-72
2024/01/16 01:16:33;;;;;;;8.25;2.38;;;1.90;99.90;;;;;;5060002;28;20033;-72
2024/01/16 01:18:59;;;;;;;14.45;2.15;;;1.90;99.90;;;;;;5059419;28;20044;-72
2024/01/16 01:21:25;;;;;;;7.03;2.60;;;1.90;99.90;;;;;;5059424;28;20027;-72
2024/01/16 01:23:50;;;;;;;8.57;2.58;;;1.90;99.90;;;;;;5058721;28;20024;-72
2024/01/16 01:26:18;;;;;;;8.93;2.90;;;2.00;99.90;;;;;;5058578;28;20096;-72
2024/01/16 01:28:43;;;;;;;4.50;2.78;;;1.90;99.90;;;;;;5059495;28;20048;-73
2024/01/16 01:31:10;;;;;;;3.60;2.10;;;1.90;99.90;;;;;;5059475;28;20062;-73
2024/01/16 01:33:35;;;;;;;7.68;2.85;;;1.90;99.90;;;;;;5059288;28;20108;-72
2024/01/16 01:36:01;;;;;;;6.43;2.47;;;1.80;99.90;;;;;;5059321;28;20056;-72
2024/01/16 01:38:27;;;;;;;7.18;3.05;;;1.70;99.90;;;;;;5059224;28;20055;-72
2024/01/16 01:40:52;;;;;;;5.25;2.40;;;1.70;99.90;;;;;;5058363;28;20029;-72
2024/01/16 01:43:25;;;;;;;13.60;3.03;;;1.70;99.90;;;;;;5058680;28;20105;-72
2024/01/16 01:46:11;;;;;;;8.98;2.45;;;1.70;99.90;;;;;;5058275;28;20021;-72
2024/01/16 01:48:44;;;;;;;7.22;2.72;;;1.80;99.90;;;;;;5059018;28;20096;-72
2024/01/16 01:51:13;;;;;;;4.75;2.22;;;1.80;99.90;;;;;;5058273;28;20029;-72
2024/01/16 01:53:41;;;;;;;11.15;3.40;;;1.80;99.90;;;;;;5058276;28;20096;-72
2024/01/16 01:56:10;;;;;;;21.30;3.45;;;1.80;99.90;;;;;;5058456;28;20025;-73
2024/01/16 01:58:38;;;;;;;8.13;2.40;;;1.80;99.90;;;;;;5058822;28;20025;-72
2024/01/16 02:01:05;;;;;;;7.15;2.83;;;1.80;99.90;;;;;;5057818;28;20059;-72
2024/01/16 02:03:35;;;;;;;7.13;2.17;;;1.90;99.90;;;;;;5058022;28;20056;-72
2024/01/16 02:06:01;;;;;;;4.97;1.75;;;1.80;99.90;;;;;;5058769;28;20068;-72
2024/01/16 02:08:26;;;;;;;11.77;2.65;;;1.80;99.90;;;;;;5057866;28;20033;-72
2024/01/16 02:10:52;;;;;;;6.82;2.70;;;1.80;99.90;;;;;;5057752;28;20082;-72
2024/01/16 02:13:22;;;;;;;5.88;1.70;;;1.80;99.90;;;;;;5057608;28;20021;-72
2024/01/16 02:15:48;;;;;;;3.03;2.00;;;1.80;99.90;;;;;;5057785;28;20017;-72
2024/01/16 02:18:14;;;;;;;8.65;1.92;;;1.90;99.90;;;;;;5058488;28;20021;-72
2024/01/16 02:20:39;;;;;;;3.05;1.92;;;2.00;99.90;;;;;;5058387;28;20033;-72
2024/01/16 02:23:07;;;;;;;7.78;2.20;;;2.00;99.90;;;;;;5057559;28;20029;-72
2024/01/16 02:25:32;;;;;;;13.85;2.53;;;1.90;99.90;;;;;;5058355;28;20063;-72
2024/01/16 02:28:00;;;;;;;5.00;2.00;;;1.90;99.90;;;;;;5058160;28;20025;-73
2024/01/16 02:30:26;;;;;;;3.92;2.45;;;1.90;99.90;;;;;;5058262;28;20021;-72
2024/01/16 02:32:51;;;;;;;7.88;2.25;;;1.90;99.90;;;;;;5057644;28;20100;-72
2024/01/16 02:35:18;;;;;;;5.32;2.10;;;1.90;99.90;;;;;;5058964;28;20041;-72
2024/01/16 02:37:43;;;;;;;5.53;2.15;;;1.80;99.90;;;;;;5058101;28;20024;-72
2024/01/16 02:40:10;;;;;;;5.50;2.33;;;1.80;99.90;;;;;;5057994;28;20112;-72
2024/01/16 02:42:37;;;;;;;5.78;2.33;;;1.90;99.90;;;;;;5057779;28;20024;-73
2024/01/16 02:45:04;;;;;;;6.60;2.00;;;1.90;99.90;;;;;;5057992;28;20087;-72
2024/01/16 02:47:30;;;;;;;10.38;1.95;;;1.90;99.90;;;;;;5057996;28;20033;-72
2024/01/16 02:49:55;;;;;;;10.13;2.85;;;2.00;99.90;;;;;;5057042;28;20108;-71
2024/01/16 02:52:21;;;;;;;3.53;2.20;;;2.10;99.90;;;;;;5056956;28;20028;-71
2024/01/16 02:54:47;;;;;;;9.75;2.70;;;2.10;99.90;;;;;;5057753;28;20033;-70
2024/01/16 02:57:12;;;;;;;7.55;2.25;;;2.10;99.90;;;;;;5057017;28;20035;-70
2024/01/16 02:59:38;;;;;;;6.28;2.30;;;2.20;99.90;;;;;;5057249;28;20054;-71
2024/01/16 03:02:03;;;;;;;9.70;2.38;;;2.10;99.90;;;;;;5057750;28;20029;-70
2024/01/16 03:04:29;;;;;;;8.02;2.42;;;2.20;99.90;;;;;;5056637;28;20021;-70
2024/01/16 03:06:55;;;;;;;4.22;2.10;;;2.20;99.90;;;;;;5057751;28;20024;-71
2024/01/16 03:09:21;;;;;;;7.18;2.42;;;2.20;99.90;;;;;;5056646;28;20053;-71
2024/01/16 03:11:46;;;;;;;4.50;2.50;;;2.10;99.90;;;;;;5056491;28;20021;-70
2024/01/16 03:14:13;;;;;;;7.75;2.47;;;2.10;99.90;;;;;;5056511;28;20028;-70
2024/01/16 03:16:39;;;;;;;10.23;2.90;;;2.10;99.90;;;;;;5057389;28;20035;-70
2024/01/16 03:19:05;;;;;;;5.93;2.63;;;2.10;99.90;;;;;;5056543;28;20029;-70
2024/01/16 03:21:30;;;;;;;7.82;2.22;;;2.10;99.90;;;;;;5057224;28;20029;-71
2024/01/16 03:23:56;;;;;;;5.72;2.30;;;2.10;99.90;;;;;;5056434;28;20071;-70
2024/01/16 03:26:22;;;;;;;6.15;2.75;;;2.10;99.90;;;;;;5056671;28;20017;-72
2024/01/16 03:28:47;;;;;;;14.93;3.50;;;2.00;99.90;;;;;;5057101;28;20021;-72
2024/01/16 03:31:16;;;;;;;4.63;2.35;;;1.90;99.90;;;;;;5056401;28;20032;-72
2024/01/16 03:33:43;;;;;;;18.40;2.58;;;1.90;99.90;;;;;;5057453;28;20028;-72
2024/01/16 03:36:12;;;;;;;10.90;2.58;;;1.90;99.90;;;;;;5057331;28;20045;-73
2024/01/16 03:38:39;;;;;;;9.80;3.22;;;1.90;99.90;;;;;;5056250;28;20025;-72
2024/01/16 03:41:06;;;;;;;10.93;2.50;;;1.90;99.90;;;;;;5056087;28;20033;-72
2024/01/16 03:43:33;;;;;;;4.38;2.58;;;1.90;99.90;;;;;;5057571;28;20025;-72
2024/01/16 03:45:58;;;;;;;6.32;2.17;;;1.90;99.90;;;;;;5056073;28;20108;-72
2024/01/16 03:48:24;;;;;;;5.70;2.83;;;1.80;99.90;;;;;;5055866;28;20049;-72
2024/01/16 03:50:50;;;;;;;6.20;2.92;;;1.70;99.90;;;;;;5056062;28;20048;-72
2024/01/16 03:53:15;;;;;;;5.35;2.70;;;1.70;99.90;;;;;;5056073;28;20044;-73
2024/01/16 03:55:41;;;;;;;7.18;2.95;;;1.70;99.90;;;;;;5057090;28;20021;-72
2024/01/16 03:58:07;;;;;;;8.15;3.25;;;1.70;99.90;;;;;;5057296;28;20028;-72
2024/01/16 04:00:33;;;;;;;17.13;2.95;;;1.80;99.90;;;;;;5056792;28;20021;-72
2024/01/16 04:02:58;;;;;;;7.65;2.92;;;1.80;99.90;;;;;;5055952;28;20108;-73
2024/01/16 04:05:24;;;;;;;7.75;3.70;;;1.90;99.90;;;;;;5057256;28;20032;-72
2024/01/16 04:07:49;;;;;;;8.68;3.33;;;1.90;99.90;;;;;;5056765;28;20033;-72
2024/01/16 04:10:15;;;;;;;6.72;2.72;;;1.80;99.90;;;;;;5055932;28;20028;-72
2024/01/16 04:12:40;;;;;;;12.95;3.22;;;1.70;99.90;;;;;;5056600;28;20033;-72
2024/01/16 04:15:06;;;;;;;5.22;3.00;;;1.70;99.90;;;;;;5055731;28;20028;-72
2024/01/16 04:17:32;;;;;;;6.75;3.33;;;1.70;99.90;;;;;;5056818;28;20100;-72
2024/01/16 04:19:57;;;;;;;10.77;3.53;;;1.70;99.90;;;;;;5056690;28;20049;-73
2024/01/16 04:22:23;;;;;;;18.35;3.40;;;1.80;99.90;;;;;;5055673;28;20029;-72
2024/01/16 04:24:49;;;;;;;8.32;3.15;;;1.90;99.90;;;;;;5056627;28;20043;-72
2024/01/16 04:27:14;;;;;;;8.23;3.40;;;1.80;99.90;;;;;;5056602;28;20108;-72
2024/01/16 04:29:40;;;;;;;7.22;3.00;;;1.80;99.90;;;;;;5055803;28;20108;-72
2024/01/16 04:32:05;;;;;;;5.05;2.08;;;1.90;99.90;;;;;;5056536;28;20022;-72
2024/01/16 04:34:31;;;;;;;5.93;2.58;;;1.90;99.90;;;;;;5056968;28;20021;-72
2024/01/16 04:36:56;;;;;;;8.45;2.95;;;2.00;99.90;;;;;;5056525;28;20025;-72
2024/01/16 04:39:22;;;;;;;7.57;3.35;;;1.90;99.90;;;;;;5055343;28;20029;-72
2024/01/16 04:41:51;;;;;;;10.27;2.90;;;1.90;99.90;;;;;;5056029;28;20039;-72
2024/01/16 04:44:17;;;;;;;13.93;4.40;;;1.90;99.90;;;;;;5055821;28;20021;-73
2024/01/16 04:46:42;;;;;;;7.47;2.88;;;1.90;99.90;;;;;;5055421;28;20024;-72
2024/01/16 04:49:08;;;;;;;7.32;2.83;;;1.90;99.90;;;;;;5055655;28;20053;-73
2024/01/16 04:51:34;;;;;;;12.50;3.72;;;1.90;99.90;;;;;;5056374;28;20100;-73
2024/01/16 04:53:59;;;;;;;7.72;3.15;;;2.00;99.90;;;;;;5055546;28;20032;-73
2024/01/16 04:56:25;;;;;;;7.68;2.67;;;2.00;99.90;;;;;;5056449;28;20057;-72
2024/01/16 04:58:52;;;;;;;6.72;3.03;;;1.80;99.90;;;;;;5055779;28;20093;-72
2024/01/16 05:01:17;;;;;;;9.10;3.55;;;1.80;99.90;;;;;;5057630;28;20025;-72
2024/01/16 05:03:43;;;;;;;10.93;2.97;;;1.90;99.90;;;;;;5058948;28;20025;-72
2024/01/16 05:06:15;;;;;;;4.88;3.25;;;1.90;99.90;;;;;;5059764;28;20032;-72
2024/01/16 05:08:41;;;;;;;5.82;2.83;;;1.90;99.90;;;;;;5059016;28;20025;-72
2024/01/16 05:11:07;;;;;;;10.02;4.47;;;1.90;99.90;;;;;;5058925;28;20021;-72
2024/01/16 05:13:33;;;;;;;5.97;2.95;;;1.90;99.90;;;;;;5058867;28;20021;-72
2024/01/16 05:15:58;;;;;;;10.52;3.22;;;2.00;99.90;;;;;;5059698;28;20040;-73
2024/01/16 05:18:24;;;;;;;15.02;3.17;;;2.00;99.90;;;;;;5058685;28;20032;-72
2024/01/16 05:20:49;;;;;;;8.30;3.00;;;2.00;99.90;;;;;;5059504;28;20037;-73
2024/01/16 05:23:15;;;;;;;14.13;3.28;;;2.00;99.90;;;;;;5059836;28;20102;-73
2024/01/16 05:25:40;;;;;;;7.78;3.25;;;2.00;99.90;;;;;;5058898;28;20021;-72
2024/01/16 05:28:06;;;;;;;10.02;3.70;;;1.90;99.90;;;;;;5059830;28;20021;-72
2024/01/16 05:30:33;;;;;;;4.43;3.00;;;2.00;99.90;;;;;;5059344;28;20045;-72
2024/01/16 05:33:00;;;;;;;9.52;3.67;;;1.90;99.90;;;;;;5059309;28;20031;-72
2024/01/16 05:35:27;;;;;;;7.30;3.05;;;1.90;99.90;;;;;;5059275;28;20029;-72
2024/01/16 05:37:53;;;;;;;16.80;3.75;;;1.80;99.90;;;;;;5059192;28;20028;-72
2024/01/16 05:40:19;;;;;;;7.65;3.35;;;1.90;99.90;;;;;;5059763;28;20044;-72
2024/01/16 05:42:45;;;;;;;10.05;3.42;;;1.90;99.90;;;;;;5058986;28;20029;-73
2024/01/16 05:45:10;;;;;;;9.10;3.28;;;1.90;99.90;;;;;;5059124;28;20084;-72
2024/01/16 05:47:36;;;;;;;11.88;3.22;;;1.90;99.90;;;;;;5058396;28;20116;-72
2024/01/16 05:50:02;;;;;;;12.40;4.15;;;1.90;99.90;;;;;;5059501;28;20049;-73
2024/01/16 05:52:27;;;;;;;6.07;2.88;;;1.90;99.90;;;;;;5059011;28;20100;-72
2024/01/16 05:54:57;;;;;;;6.45;2.72;;;1.70;99.90;;;;;;5058909;28;20036;-72
2024/01/16 05:57:23;;;;;;;19.90;3.30;;;1.70;99.90;;;;;;5058091;28;20036;-72
2024/01/16 05:59:48;;;;;;;7.35;3.05;;;1.60;99.90;;;;;;5059487;28;20029;-72
2024/01/16 06:02:14;;;;;;;12.15;3.03;;;1.60;99.90;;;;;;5058721;28;20025;-72
2024/01/16 06:04:40;;;;;;;9.50;3.40;;;1.70;99.90;;;;;;5057983;28;20029;-72
2024/01/16 06:07:07;;;;;;;12.07;3.67;;;1.70;99.90;;;;;;5059061;28;20096;-72
2024/01/16 06:09:33;;;;;;;9.32;3.45;;;1.70;99.90;;;;;;5058985;28;20024;-72
2024/01/16 06:11:58;;;;;;;11.82;4.03;;;1.70;99.90;;;;;;5057926;28;20108;-72
2024/01/16 06:14:24;;;;;;;11.63;3.63;;;1.70;99.90;;;;;;5058575;28;20021;-72
2024/01/16 06:16:50;;;;;;;15.40;4.47;;;1.80;99.90;;;;;;5057598;28;20032;-72
2024/01/16 06:19:16;;;;;;;9.90;4.07;;;1.80;99.90;;;;;;5057827;28;20048;-73
2024/01/16 06:21:42;;;;;;;14.63;4.03;;;1.80;99.90;;;;;;5058154;28;20029;-73
2024/01/16 06:24:08;;;;;;;13.60;4.47;;;1.80;99.90;;;;;;5058336;28;20021;-73
2024/01/16 06:26:33;;;;;;;5.72;3.20;;;1.80;99.90;;;;;;5057673;28;20016;-73
2024/01/16 06:28:59;;;;;;;11.38;2.83;;;1.80;99.90;;;;;;5058298;28;20025;-72
2024/01/16 06:31:26;;;;;;;13.50;3.72;;;1.70;99.90;;;;;;5057737;28;20036;-73
2024/01/16 06:33:51;;;;;;;7.35;3.30;;;1.60;99.90;;;;;;5058214;28;20104;-73
2024/01/16 06:36:17;;;;;;;9.88;4.13;;;1.50;99.90;;;;;;5058487;28;20052;-72
2024/01/16 06:38:43;;;;;;;10.05;3.67;;;1.50;99.90;;;;;;5057582;28;20021;-72
2024/01/16 06:41:09;;;;;;;16.17;3.20;;;1.40;99.90;;;;;;5057481;28;20116;-72
2024/01/16 06:43:34;;;;;;;6.28;3.38;;;1.50;99.90;;;;;;5057257;28;20076;-73
2024/01/16 06:46:00;;;;;;;12.05;4.05;;;1.60;99.90;;;;;;5057301;28;20020;-72
2024/01/16 06:48:26;;;;;;;13.23;4.00;;;1.60;99.90;;;;;;5057884;28;20044;-72
2024/01/16 06:50:51;;;;;;;10.55;3.03;;;1.60;99.90;;;;;;5057021;28;20056;-73
2024/01/16 06:53:17;;;;;;;11.10;3.38;;;1.60;99.90;;;;;;5057042;28;20029;-72
2024/01/16 06:55:42;;;;;;;8.73;3.55;;;1.60;99.90;;;;;;5056892;28;20025;-72
2024/01/16 06:58:09;;;;;;;10.10;3.10;;;1.70;99.90;;;;;;5056833;28;20063;-72
2024/01/16 07:00:35;;;;;;;8.50;3.30;;;1.70;99.90;;;;;;5057939;28;20021;-72
2024/01/16 07:03:02;;;;;;;6.53;2.63;;;1.70;99.90;;;;;;5056774;28;20032;-72
2024/01/16 07:05:29;;;;;;;13.77;2.97;;;1.70;99.90;;;;;;5057027;28;20032;-72
2024/01/16 07:07:55;;;;;;;12.82;3.45;;;1.60;99.90;;;;;;5057443;28;20158;-73
2024/01/16 07:10:22;;;;;;;9.15;3.55;;;1.50;99.90;;;;;;5056657;28;20052;-72
2024/01/16 07:12:49;;;;;;;11.57;3.38;;;1.60;99.90;;;;;;5057676;28;20021;-71
2024/01/16 07:15:15;;;;;;;11.30;3.00;;;1.50;99.90;;;;;;5057556;28;20031;-70
2024/01/16 07:17:40;;;;;;;12.23;3.03;;;1.60;99.90;;;;;;5056682;28;20032;-70
2024/01/16 07:20:07;;;;;;;9.60;3.30;;;1.60;99.90;;;;;;5056418;28;20079;-70
2024/01/16 07:22:34;;;;;;;9.30;3.05;;;1.70;99.90;;;;;;5057160;28;20017;-70
2024/01/16 07:24:59;;;;;;;8.65;3.42;;;1.70;99.90;;;;;;5056067;28;20028;-71
2024/01/16 07:27:25;;;;;;;14.32;3.47;;;1.70;99.90;;;;;;5056297;28;20021;-70
2024/01/16 07:29:51;;;;;;;6.97;3.00;;;1.70;99.90;;;;;;5057306;28;20021;-70
2024/01/16 07:32:16;;;;;;;14.20;3.55;;;1.70;99.90;;;;;;5056315;28;20021;-71
2024/01/16 07:34:42;;;;;;;8.90;4.13;;;1.70;99.90;;;;;;5057508;28;20021;-70
2024/01/16 07:37:07;;;;;;;9.52;3.42;;;1.70;99.90;;;;;;5056803;28;20028;-70
2024/01/16 07:39:33;;;;;;;7.10;3.00;;;1.70;99.90;;;;;;5056308;28;20025;-70
2024/01/16 07:41:59;;;;;;;10.93;3.47;;;1.70;99.90;;;;;;5056112;28;20029;-72
2024/01/16 07:44:26;;;;;;;7.20;3.88;;;1.50;99.90;;;;;;5056544;28;20055;-72
2024/01/16 07:46:51;;;;;;;9.88;3.13;;;1.50;99.90;;;;;;5056066;28;20104;-72
2024/01/16 07:49:17;;;;;;;11.35;3.40;;;1.40;99.90;;;;;;5056267;28;20028;-71
2024/01/16 07:51:42;;;;;;;10.73;3.83;;;1.30;99.90;;;;;;5057007;28;20021;-72
2024/01/16 07:54:09;;;;;;;11.57;3.80;;;1.30;99.90;;;;;;5057006;28;20028;-72
2024/01/16 07:56:36;;;;;;;9.30;3.45;;;1.30;99.90;;;;;;5056846;28;20056;-72
2024/01/16 07:59:02;;;;;;;7.22;3.35;;;1.40;99.90;;;;;;5056820;28;20100;-72
2024/01/16 08:01:32;;;;;;;8.32;2.95;;;1.40;99.90;;;;;;5056044;28;20116;-72
2024/01/16 08:03:57;;;;;;;10.88;4.15;;;1.50;99.90;;;;;;5055930;28;20052;-72
2024/01/16 08:06:23;;;;;;;15.18;3.92;;;1.60;99.90;;;;;;5057263;28;20021;-73
2024/01/16 08:08:49;;;;;;;8.68;3.38;;;1.60;99.90;;;;;;5056013;28;20024;-72
2024/01/16 08:11:16;;;;;;;5.93;3.33;;;1.60;99.90;;;;;;5056154;28;20025;-73
2024/01/16 08:13:41;;;;;;;13.27;3.80;;;1.70;99.90;;;;;;5056840;28;20025;-71
2024/01/16 08:16:07;;;;;;;8.55;3.28;;;1.70;99.90;;;;;;5055732;28;20104;-71
2024/01/16 08:18:33;;;;;;;8.63;3.13;;;1.70;99.90;;;;;;5056096;28;20025;-71
2024/01/16 08:20:59;;;;;;;7.03;3.42;;;1.80;99.90;;;;;;5055961;28;20121;-70
2024/01/16 08:23:25;;;;;;;6.20;3.00;;;1.90;99.90;;;;;;5056659;28;20096;-71
2024/01/16 08:25:51;;;;;;;12.05;3.10;;;1.80;99.90;;;;;;5055869;28;20021;-71
2024/01/16 08:28:17;;;;;;;10.13;3.60;;;1.70;99.90;;;;;;5056710;28;20075;-71
2024/01/16 08:30:43;;;;;;;6.60;3.28;;;1.70;99.90;;;;;;5055868;28;20024;-72
2024/01/16 08:33:09;;;;;;;9.40;3.20;;;1.60;99.90;;;;;;5055999;28;20024;-73
2024/01/16 08:35:34;;;;;;;11.75;3.78;;;1.60;99.90;;;;;;5059202;28;20075;-73
2024/01/16 08:38:00;;;;;;;9.32;3.28;;;1.60;99.90;;;;;;5059827;28;20044;-74
2024/01/16 08:40:26;;;;;;;12.20;3.42;;;1.60;99.90;;;;;;5060274;28;20029;-74
2024/01/16 08:42:54;;;;;;;8.95;3.35;;;1.60;99.90;;;;;;5059446;28;20027;-73
2024/01/16 08:45:21;;;;;;;14.80;3.58;;;1.70;99.90;;;;;;5059352;28;20025;-73
2024/01/16 08:47:47;;;;;;;7.95;2.97;;;1.80;99.90;;;;;;5059344;28;20025;-74
2024/01/16 08:50:12;;;;;;;10.48;3.45;;;1.80;99.90;;;;;;5060295;28;20028;-74
2024/01/16 08:52:38;;;;;;;11.07;3.13;;;1.80;99.90;;;;;;5059505;28;20112;-73
2024/01/16 08:55:04;;;;;;;10.65;3.00;;;1.80;99.90;;;;;;5060120;28;20029;-72
2024/01/16 08:57:30;;;;;;;10.20;4.00;;;1.80;99.90;;;;;;5059182;28;20025;-71
2024/01/16 08:59:55;;;;;;;10.48;3.33;;;1.80;99.90;;;;;;5060260;28;20036;-72
2024/01/16 09:02:21;;;;;;;12.57;3.53;;;1.70;99.90;;;;;;5058848;28;20029;-71
2024/01/16 09:04:50;;;;;;;9.63;3.85;;;1.70;99.90;;;;;;5060024;28;20048;-72
2024/01/16 09:07:16;;;;;;;8.88;3.67;;;1.70;99.90;;;;;;5059098;28;20108;-72
2024/01/16 09:09:42;;;;;;;7.38;3.42;;;1.70;99.90;;;;;;5059936;28;20029;-72
2024/01/16 09:12:11;;;;;;;7.13;3.58;;;1.80;99.90;;;;;;5059664;28;20031;-72
2024/01/16 09:14:37;;;;;;;14.32;3.88;;;1.80;99.90;;;;;;5059795;28;20086;-71
2024/01/16 09:17:03;;;;;;;10.20;4.28;;;1.80;99.90;;;;;;5058885;28;20048;-72
2024/01/16 09:19:29;;;;;;;8.88;3.30;;;1.90;99.90;;;;;;5058675;28;20036;-71
2024/01/16 09:21:55;;;;;;;7.97;3.60;;;1.90;99.90;;;;;;5058665;28;20070;-71
2024/01/16 09:24:21;;;;;;;12.20;3.65;;;2.00;99.90;;;;;;5059577;28;20059;-71
2024/01/16 09:26:47;;;;;;;9.20;2.95;;;1.90;99.90;;;;;;5059738;28;20049;-71
2024/01/16 09:29:14;;;;;;;6.97;2.70;;;1.90;99.90;;;;;;5059802;28;20021;-71
2024/01/16 09:31:42;;;;;;;8.10;2.70;;;1.90;99.90;;;;;;5059509;28;20029;-71
2024/01/16 09:34:08;;;;;;;8.68;2.83;;;1.90;99.90;;;;;;5058631;28;20054;-71
2024/01/16 09:36:35;;;;;;;7.50;3.15;;;2.00;99.90;;;;;;5059392;28;20028;-71
2024/01/16 09:39:02;;;;;;;7.15;3.08;;;2.00;99.90;;;;;;5059139;28;20028;-70
2024/01/16 09:41:28;;;;;;;7.35;3.28;;;2.00;99.90;;;;;;5059475;28;20047;-70
2024/01/16 09:43:54;;;;;;;11.10;2.70;;;2.20;99.90;;;;;;5058786;28;20025;-71
2024/01/16 09:46:23;;;;;;;5.32;2.67;;;2.20;99.90;;;;;;5057551;28;20028;-71
2024/01/16 09:48:51;;;;;;;11.35;3.20;;;2.20;99.90;;;;;;5059383;28;20104;-71
2024/01/16 09:51:17;;;;;;;10.63;3.10;;;2.10;99.90;;;;;;5058319;28;20032;-71
2024/01/16 09:53:42;;;;;;;11.95;2.95;;;2.10;99.90;;;;;;5059016;28;20025;-73
2024/01/16 09:56:14;;;;;;;5.82;2.58;;;2.00;99.90;;;;;;5059078;28;20107;-73
2024/01/16 09:58:42;;;;;;;13.73;3.35;;;2.00;99.90;;;;;;5058979;28;20025;-73
2024/01/16 10:01:08;;;;;;;4.65;2.13;;;1.90;99.90;;;;;;5058488;28;20029;-72
2024/01/16 10:03:35;;;;;;;9.73;2.78;;;1.90;99.90;;;;;;5059110;28;20108;-72
2024/01/16 10:06:07;;;;;;;7.95;4.25;;;2.00;99.90;;;;;;5057947;28;20028;-73
2024/01/16 10:08:33;;;;;;;12.23;2.97;;;2.10;99.90;;;;;;5058756;28;20021;-74
2024/01/16 10:11:01;;;;;;;10.98;3.03;;;2.20;99.90;;;;;;5058733;28;20048;-73
2024/01/16 10:13:27;;;;;;;8.30;2.97;;;2.20;99.90;;;;;;5057815;28;20029;-73
2024/01/16 10:15:55;;;;;;;6.22;2.85;;;2.30;99.90;;;;;;5057783;28;20028;-73
2024/01/16 10:18:25;;;;;;;5.28;2.78;;;2.30;99.90;;;;;;5059157;28;20021;-73
2024/01/16 10:20:52;;;;;;;7.97;3.33;;;2.40;99.90;;;;;;5057526;28;20029;-72
2024/01/16 10:23:26;;;;;;;6.03;2.58;;;2.30;99.90;;;;;;5057599;28;20025;-73
2024/01/16 10:26:10;;;;;;;5.00;2.35;;;2.30;99.90;;;;;;5058731;28;20016;-73
2024/01/16 10:28:38;;;;;;;6.70;2.63;;;2.40;99.90;;;;;;5057630;28;20028;-73
2024/01/16 10:31:10;;;;;;;8.70;3.33;;;2.40;99.90;;;;;;5058455;28;20020;-73
2024/01/16 10:33:39;;;;;;;8.75;3.05;;;2.40;99.90;;;;;;5058524;28;20021;-73
2024/01/16 10:36:11;;;;;;;7.88;2.90;;;2.50;99.90;;;;;;5057299;28;20108;-73
2024/01/16 10:38:41;;;;;;;13.25;2.95;;;2.40;99.90;;;;;;5057471;28;20106;-73
2024/01/16 10:41:18;;;;;;;17.05;2.38;;;2.40;99.90;;;;;;5057928;28;20049;-73
2024/01/16 10:43:44;;;;;;;7.85;3.47;;;2.30;99.90;;;;;;5057784;28;20025;-73
2024/01/16 10:46:14;;;;;;;7.05;2.25;;;2.20;99.90;;;;;;5056044;28;20025;-73
2024/01/16 10:48:48;;;;;;;6.18;2.28;;;2.20;99.90;;;;;;5055098;28;20021;-70
2024/01/16 10:51:15;;;;;;;7.10;2.90;;;2.30;99.90;;;;;;5056989;28;20091;-71
2024/01/16 10:53:47;;;;;;;4.40;2.05;;;2.20;99.90;;;;;;5056509;28;20052;-70
2024/01/16 10:56:13;;;;;;;7.82;2.58;;;2.20;99.90;;;;;;5057740;28;20013;-70
2024/01/16 10:58:42;;;;;;;10.55;2.70;;;2.10;99.90;;;;;;5056302;28;20025;-70
2024/01/16 11:01:15;;;;;;;16.35;3.03;;;2.20;99.90;;;;;;5056625;28;20027;-71
2024/01/16 11:03:49;;;;;;;13.80;2.92;;;2.30;99.90;;;;;;5057021;28;20018;-70
2024/01/16 11:06:16;;;;;;;7.07;2.40;;;2.30;99.90;;;;;;5056963;28;20119;-70
2024/01/16 11:08:42;;;;;;;10.85;2.20;;;2.30;99.90;;;;;;5056543;28;20039;-70
2024/01/16 11:11:09;;;;;;;6.38;2.38;;;2.30;99.90;;;;;;5057093;28;20017;-70
2024/01/16 11:13:35;;;;;;;11.57;2.20;;;2.30;99.90;;;;;;5057476;28;20056;-70
2024/01/16 11:16:04;;;;;;;7.75;2.50;;;2.40;99.90;;;;;;5056479;28;20024;-71
2024/01/16 11:18:32;;;;;;;7.90;2.60;;;2.50;99.90;;;;;;5056419;28;20029;-71
2024/01/16 11:20:59;;;;;;;8.55;4.55;;;2.50;99.90;;;;;;5056950;28;20040;-71
2024/01/16 11:23:25;;;;;;;15.40;4.18;;;2.50;99.90;;;;;;5057095;28;20021;-70
2024/01/16 11:25:51;;;;;;;5.38;2.50;;;2.60;99.90;;;;;;5056315;28;20032;-70
2024/01/16 11:28:17;;;;;;;9.57;3.47;;;2.60;99.90;;;;;;5057149;28;20025;-71
2024/01/16 11:30:46;;;;;;;7.35;3.00;;;2.60;99.90;;;;;;5056646;28;20020;-71
2024/01/16 11:33:42;;;;;;;6.65;2.60;;;2.60;99.90;;;;;;5056718;28;20036;-71
2024/01/16 11:36:54;;;;;;;8.10;2.58;;;2.70;99.90;;;;;;5057098;28;20052;-71
2024/01/16 11:39:25;;;;;;;6.40;1.88;;;2.80;99.90;;;;;;5054296;28;20123;-70
2024/01/16 11:42:11;;;;;;;5.97;2.13;;;2.90;99.90;;;;;;5056443;28;20033;-70
2024/01/16 11:44:45;;;;;;;10.35;2.63;;;3.00;99.90;;;;;;5057005;28;20058;-70
2024/01/16 11:47:22;;;;;;;4.25;2.13;;;3.10;99.90;;;;;;5057053;28;20021;-71
2024/01/16 11:50:07;;;;;;;6.28;2.25;;;3.10;99.90;;;;;;5056835;28;20013;-70
2024/01/16 11:52:45;;;;;;;9.57;2.38;;;3.10;99.90;;;;;;5055940;28;20092;-71
2024/01/16 11:55:33;;;;;;;7.10;1.77;;;3.20;99.90;;;;;;5056841;28;20171;-70
2024/01/16 11:58:19;;;;;;;9.38;1.98;;;3.20;99.90;;;;;;5056783;28;20032;-69
2024/01/16 12:00:47;;;;;;;4.00;1.98;;;3.10;99.90;;;;;;5055557;28;20032;-70
2024/01/16 12:03:16;;;;;;;4.25;2.20;;;3.10;99.90;;;;;;5055876;28;20031;-70
2024/01/16 12:05:43;;;;;;;3.80;1.58;;;3.20;99.90;;;;;;5056822;28;20025;-70
2024/01/16 12:08:09;;;;;;;7.25;1.92;;;3.20;99.90;;;;;;5056763;28;20021;-71
2024/01/16 12:10:46;;;;;;;3.55;1.60;;;3.10;99.90;;;;;;5059451;28;20021;-71
2024/01/16 12:13:12;;;;;;;7.30;1.73;;;3.10;99.90;;;;;;5060562;28;20021;-71
2024/01/16 12:15:37;;;;;;;3.10;1.67;;;3.10;99.90;;;;;;5060880;28;20021;-71
2024/01/16 12:18:03;;;;;;;9.95;2.13;;;3.10;99.90;;;;;;5060315;28;20025;-70
2024/01/16 12:20:33;;;;;;;5.97;2.47;;;3.20;99.90;;;;;;5060388;28;20052;-71
2024/01/16 12:23:04;;;;;;;5.72;1.85;;;3.30;99.90;;;;;;5059356;28;20025;-70
2024/01/16 12:25:31;;;;;;;12.15;2.22;;;3.40;99.90;;;;;;5060835;28;20075;-70
2024/01/16 12:27:57;;;;;;;12.43;2.92;;;3.40;99.90;;;;;;5060596;28;20043;-71
2024/01/16 12:30:29;;;;;;;7.10;1.90;;;3.40;99.90;;;;;;5060687;28;20017;-70
2024/01/16 12:33:06;;;;;;;;;;;3.40;99.90;;;;;;5060553;28;20021;-72
2024/01/16 12:35:33;;;;;;;5.53;2.05;;;3.40;99.90;;;;;;5059743;28;19915;-72
2024/01/16 12:38:00;;;;;;;5.05;1.83;;;3.40;99.90;;;;;;5060344;28;20021;-72
2024/01/16 12:40:26;;;;;;;7.50;2.00;;;3.40;99.90;;;;;;5060291;28;20054;-72
2024/01/16 12:42:53;;;;;;;3.83;1.63;;;3.30;99.90;;;;;;5059234;28;20040;-73
2024/01/16 12:45:19;;;;;;;8.70;2.08;;;3.30;99.90;;;;;;5060683;28;20024;-73
2024/01/16 12:47:48;;;;;;;3.90;2.35;;;3.20;99.90;;;;;;5059549;28;20017;-72
2024/01/16 12:50:23;;;;;;;11.38;1.52;;;3.20;99.90;;;;;;5059321;28;20021;-72
2024/01/16 12:53:04;;;;;;;7.60;2.42;;;3.30;99.90;;;;;;5059195;28;20055;-71
2024/01/16 12:55:31;;;;;;;6.68;2.10;;;3.40;99.90;;;;;;5060391;28;20104;-72